createdAt,value
2018-07-07T00:00:43.533Z,5.40
2018-07-07T00:01:43.520Z,4.20
2018-07-07T00:02:43.504Z,4.60
2018-07-07T00:03:43.490Z,5.00
2018-07-07T00:04:43.477Z,4.70
2018-07-07T00:05:43.464Z,5.30
2018-07-07T00:06:43.452Z,5.80
2018-07-07T00:07:43.433Z,5.50
2018-07-07T00:08:43.418Z,3.90
2018-07-07T00:09:43.406Z,3.60
2018-07-07T00:10:43.390Z,4.90
2018-07-07T00:11:43.375Z,5.20
2018-07-07T00:12:43.360Z,3.40
2018-07-07T00:13:43.346Z,5.00
2018-07-07T00:14:43.338Z,6.40
2018-07-07T00:15:43.319Z,5.10
2018-07-07T00:16:43.303Z,6.70
2018-07-07T00:17:43.289Z,3.40
2018-07-07T00:18:43.276Z,4.80
2018-07-07T00:19:43.260Z,5.40
2018-07-07T00:20:43.245Z,5.90
2018-07-07T00:21:43.234Z,6.40
2018-07-07T00:22:43.218Z,4.90
2018-07-07T00:23:43.205Z,4.70
2018-07-07T00:24:43.187Z,5.20
2018-07-07T00:25:43.173Z,5.10
2018-07-07T00:26:43.160Z,5.30
2018-07-07T00:27:43.141Z,4.00
2018-07-07T00:28:43.129Z,5.80
2018-07-07T00:29:43.112Z,5.10
2018-07-07T00:30:43.097Z,5.40
2018-07-07T00:31:43.083Z,3.80
2018-07-07T00:32:43.070Z,6.00
2018-07-07T00:33:43.054Z,4.50
2018-07-07T00:34:43.040Z,6.40
2018-07-07T00:35:43.026Z,5.20
2018-07-07T00:36:43.021Z,4.60
2018-07-07T00:37:42.996Z,5.50
2018-07-07T00:38:42.981Z,4.90
2018-07-07T00:39:42.966Z,5.60
2018-07-07T00:40:42.952Z,5.40
2018-07-07T00:41:42.937Z,5.90
2018-07-07T00:42:42.921Z,6.90
2018-07-07T00:43:42.909Z,5.60
2018-07-07T00:44:42.892Z,6.00
2018-07-07T00:45:42.877Z,4.40
2018-07-07T00:46:42.863Z,6.00
2018-07-07T00:47:42.850Z,4.10
2018-07-07T00:48:42.833Z,6.10
2018-07-07T00:49:42.820Z,7.30
2018-07-07T00:50:42.807Z,6.30
2018-07-07T00:51:42.789Z,6.00
2018-07-07T00:52:42.774Z,6.50
2018-07-07T00:53:42.764Z,5.10
2018-07-07T00:54:42.744Z,7.30
2018-07-07T00:55:42.733Z,5.30
2018-07-07T00:56:42.714Z,4.70
2018-07-07T00:57:42.703Z,6.30
2018-07-07T00:58:42.690Z,9.00
2018-07-07T00:59:42.671Z,4.60
2018-07-07T01:00:42.659Z,5.80
2018-07-07T01:01:42.639Z,4.80
2018-07-07T01:02:42.630Z,5.30
2018-07-07T01:03:42.610Z,6.90
2018-07-07T01:04:42.594Z,7.00
2018-07-07T01:05:42.579Z,5.00
2018-07-07T01:06:42.564Z,5.70
2018-07-07T01:07:42.550Z,5.90
2018-07-07T01:08:42.537Z,5.30
2018-07-07T01:09:42.522Z,5.80
2018-07-07T01:10:42.505Z,7.60
2018-07-07T01:11:42.489Z,4.60
2018-07-07T01:12:42.477Z,8.00
2018-07-07T01:13:42.461Z,4.50
2018-07-07T01:14:42.446Z,6.20
2018-07-07T01:15:42.432Z,6.30
2018-07-07T01:16:42.415Z,5.10
2018-07-07T01:17:42.404Z,6.80
2018-07-07T01:18:42.385Z,7.70
2018-07-07T01:19:42.370Z,6.60
2018-07-07T01:20:42.353Z,6.20
2018-07-07T01:21:42.338Z,6.00
2018-07-07T01:22:42.320Z,4.00
2018-07-07T01:23:42.307Z,5.70
2018-07-07T01:24:42.293Z,6.00
2018-07-07T01:25:42.275Z,5.70
2018-07-07T01:26:42.276Z,7.60
2018-07-07T01:27:42.249Z,6.00
2018-07-07T01:28:42.236Z,8.40
2018-07-07T01:29:42.228Z,5.60
2018-07-07T01:30:42.201Z,6.90
2018-07-07T01:31:42.184Z,6.10
2018-07-07T01:32:42.172Z,6.30
2018-07-07T01:33:42.154Z,7.20
2018-07-07T01:34:42.139Z,6.80
2018-07-07T01:35:42.124Z,6.50
2018-07-07T01:36:42.109Z,6.40
2018-07-07T01:37:42.109Z,7.90
2018-07-07T01:38:42.077Z,6.40
2018-07-07T01:39:42.062Z,5.80
2018-07-07T01:40:42.048Z,5.10
2018-07-07T01:41:42.034Z,8.80
2018-07-07T01:42:42.017Z,6.60
2018-07-07T01:43:42.002Z,8.30
2018-07-07T01:44:41.989Z,6.00
2018-07-07T01:45:41.969Z,6.60
2018-07-07T01:46:41.960Z,6.90
2018-07-07T01:47:41.938Z,5.90
2018-07-07T01:48:41.993Z,5.50
2018-07-07T01:49:41.909Z,7.00
2018-07-07T01:50:41.894Z,6.00
2018-07-07T01:51:41.878Z,4.70
2018-07-07T01:52:41.861Z,6.60
2018-07-07T01:53:41.845Z,7.70
2018-07-07T01:54:41.830Z,6.10
2018-07-07T01:55:41.817Z,6.70
2018-07-07T01:56:41.802Z,7.60
2018-07-07T01:57:41.784Z,6.80
2018-07-07T01:58:41.784Z,7.00
2018-07-07T01:59:41.754Z,8.60
2018-07-07T02:00:41.739Z,6.40
2018-07-07T02:01:41.723Z,6.60
2018-07-07T02:02:41.710Z,7.00
2018-07-07T02:03:41.693Z,6.80
2018-07-07T02:04:41.674Z,6.30
2018-07-07T02:05:41.658Z,8.70
2018-07-07T02:06:41.643Z,9.10
2018-07-07T02:07:41.627Z,7.30
2018-07-07T02:08:41.614Z,6.30
2018-07-07T02:09:41.597Z,6.00
2018-07-07T02:10:41.584Z,5.80
2018-07-07T02:11:41.568Z,6.80
2018-07-07T02:12:41.554Z,6.00
2018-07-07T02:13:41.537Z,8.50
2018-07-07T02:14:41.520Z,7.40
2018-07-07T02:15:41.505Z,7.10
2018-07-07T02:16:41.488Z,8.50
2018-07-07T02:17:41.473Z,5.70
2018-07-07T02:18:41.471Z,7.90
2018-07-07T02:19:41.443Z,6.40
2018-07-07T02:20:41.427Z,6.50
2018-07-07T02:21:41.408Z,8.30
2018-07-07T02:22:41.395Z,6.90
2018-07-07T02:23:41.378Z,5.60
2018-07-07T02:24:41.366Z,8.20
2018-07-07T02:25:41.346Z,6.60
2018-07-07T02:26:41.331Z,7.60
2018-07-07T02:27:41.316Z,6.80
2018-07-07T02:28:41.300Z,7.90
2018-07-07T02:29:41.286Z,5.90
2018-07-07T02:30:41.270Z,8.50
2018-07-07T02:31:41.258Z,7.10
2018-07-07T02:32:41.239Z,6.40
2018-07-07T02:33:41.219Z,8.10
2018-07-07T02:34:41.206Z,9.20
2018-07-07T02:35:41.187Z,6.30
2018-07-07T02:36:41.173Z,6.20
2018-07-07T02:37:41.161Z,7.80
2018-07-07T02:38:41.140Z,7.40
2018-07-07T02:39:41.129Z,6.70
2018-07-07T02:40:41.109Z,5.50
2018-07-07T02:41:41.099Z,7.70
2018-07-07T02:42:41.085Z,6.00
2018-07-07T02:43:41.063Z,5.50
2018-07-07T02:44:41.046Z,7.00
2018-07-07T02:45:41.042Z,9.30
2018-07-07T02:46:41.019Z,9.00
2018-07-07T02:47:41.000Z,8.10
2018-07-07T02:48:40.986Z,7.30
2018-07-07T02:49:40.967Z,5.70
2018-07-07T02:50:40.955Z,6.30
2018-07-07T02:51:40.944Z,8.10
2018-07-07T02:52:40.923Z,6.20
2018-07-07T02:53:40.907Z,7.30
2018-07-07T02:54:40.888Z,5.80
2018-07-07T02:55:40.870Z,7.70
2018-07-07T02:56:40.859Z,8.40
2018-07-07T02:57:40.840Z,8.70
2018-07-07T02:58:40.827Z,8.20
2018-07-07T02:59:40.810Z,7.60
2018-07-07T03:00:40.791Z,7.20
2018-07-07T03:01:40.779Z,5.90
2018-07-07T03:02:40.779Z,9.70
2018-07-07T03:03:40.745Z,7.00
2018-07-07T03:04:40.729Z,7.40
2018-07-07T03:05:40.712Z,8.00
2018-07-07T03:06:40.702Z,8.80
2018-07-07T03:07:40.680Z,6.40
2018-07-07T03:08:40.664Z,9.30
2018-07-07T03:09:40.653Z,9.90
2018-07-07T03:10:40.632Z,6.40
2018-07-07T03:11:40.616Z,8.50
2018-07-07T03:12:40.601Z,6.70
2018-07-07T03:13:40.582Z,7.70
2018-07-07T03:14:40.567Z,8.20
2018-07-07T03:15:40.551Z,8.10
2018-07-07T03:16:40.536Z,7.20
2018-07-07T03:17:40.522Z,7.70
2018-07-07T03:18:40.508Z,6.70
2018-07-07T03:19:40.487Z,8.80
2018-07-07T03:20:40.473Z,10.20
2018-07-07T03:21:40.454Z,9.80
2018-07-07T03:22:40.446Z,8.20
2018-07-07T03:23:40.422Z,6.50
2018-07-07T03:24:40.406Z,6.30
2018-07-07T03:25:40.388Z,7.00
2018-07-07T03:26:40.380Z,9.20
2018-07-07T03:27:40.359Z,6.00
2018-07-07T03:28:40.343Z,7.60
2018-07-07T03:29:40.327Z,6.90
2018-07-07T03:30:40.313Z,6.80
2018-07-07T03:31:40.298Z,7.50
2018-07-07T03:32:40.277Z,9.80
2018-07-07T03:33:40.258Z,10.00
2018-07-07T03:34:40.247Z,8.00
2018-07-07T03:35:40.229Z,8.10
2018-07-07T03:36:40.218Z,9.40
2018-07-07T03:37:40.194Z,6.80
2018-07-07T03:38:40.180Z,6.30
2018-07-07T03:39:40.173Z,7.80
2018-07-07T03:40:40.151Z,7.80
2018-07-07T03:41:40.129Z,8.00
2018-07-07T03:42:40.114Z,6.40
2018-07-07T03:43:40.100Z,8.90
2018-07-07T03:44:40.084Z,7.20
2018-07-07T03:45:40.066Z,7.70
2018-07-07T03:46:40.052Z,8.10
2018-07-07T03:47:40.036Z,8.10
2018-07-07T03:48:40.016Z,7.80
2018-07-07T03:49:40.003Z,8.20
2018-07-07T03:50:39.985Z,7.90
2018-07-07T03:51:39.969Z,9.30
2018-07-07T03:52:39.954Z,7.80
2018-07-07T03:53:39.937Z,7.50
2018-07-07T03:54:39.919Z,8.30
2018-07-07T03:55:39.902Z,8.30
2018-07-07T03:56:39.887Z,8.50
2018-07-07T03:57:39.870Z,5.60
2018-07-07T03:58:39.864Z,5.80
2018-07-07T03:59:39.838Z,8.90
2018-07-07T04:00:39.824Z,8.50
2018-07-07T04:01:39.812Z,8.10
2018-07-07T04:02:39.792Z,8.00
2018-07-07T04:03:39.777Z,10.50
2018-07-07T04:04:39.806Z,9.20
2018-07-07T04:05:39.743Z,7.20
2018-07-07T04:06:39.728Z,6.60
2018-07-07T04:07:39.711Z,9.10
2018-07-07T04:08:39.693Z,8.90
2018-07-07T04:09:39.677Z,8.00
2018-07-07T04:10:39.661Z,7.00
2018-07-07T04:11:39.646Z,6.50
2018-07-07T04:12:39.630Z,8.10
2018-07-07T04:13:39.611Z,6.00
2018-07-07T04:14:39.597Z,5.50
2018-07-07T04:15:39.583Z,7.50
2018-07-07T04:16:39.565Z,6.30
2018-07-07T04:17:39.552Z,9.20
2018-07-07T04:18:39.533Z,6.80
2018-07-07T04:19:39.521Z,7.90
2018-07-07T04:20:39.499Z,7.90
2018-07-07T04:21:39.491Z,8.10
2018-07-07T04:22:39.467Z,7.20
2018-07-07T04:23:39.451Z,8.30
2018-07-07T04:24:39.435Z,7.90
2018-07-07T04:25:39.418Z,9.80
2018-07-07T04:26:39.402Z,4.80
2018-07-07T04:27:39.393Z,11.10
2018-07-07T04:28:39.371Z,8.50
2018-07-07T04:29:39.356Z,9.30
2018-07-07T04:30:39.358Z,6.30
2018-07-07T04:31:39.324Z,8.10
2018-07-07T04:32:39.313Z,7.30
2018-07-07T04:33:39.293Z,6.60
2018-07-07T04:34:39.276Z,7.90
2018-07-07T04:35:39.266Z,8.70
2018-07-07T04:36:39.249Z,9.10
2018-07-07T04:37:39.229Z,6.90
2018-07-07T04:38:39.211Z,10.70
2018-07-07T04:39:39.193Z,9.10
2018-07-07T04:40:39.181Z,8.70
2018-07-07T04:41:39.163Z,7.90
2018-07-07T04:42:39.149Z,9.70
2018-07-07T04:43:39.130Z,7.30
2018-07-07T04:44:39.114Z,7.70
2018-07-07T04:45:39.098Z,8.00
2018-07-07T04:46:39.084Z,7.80
2018-07-07T04:47:39.069Z,8.30
2018-07-07T04:48:39.052Z,7.40
2018-07-07T04:49:39.035Z,8.00
2018-07-07T04:50:39.017Z,5.70
2018-07-07T04:51:39.002Z,8.60
2018-07-07T04:52:38.986Z,8.40
2018-07-07T04:53:38.975Z,10.00
2018-07-07T04:54:38.953Z,9.30
2018-07-07T04:55:38.938Z,8.50
2018-07-07T04:56:38.922Z,9.40
2018-07-07T04:57:38.908Z,7.80
2018-07-07T04:58:38.888Z,11.70
2018-07-07T04:59:38.877Z,9.20
2018-07-07T05:00:38.857Z,9.50
2018-07-07T05:01:38.842Z,8.20
2018-07-07T05:02:38.830Z,9.20
2018-07-07T05:03:38.815Z,7.10
2018-07-07T05:04:38.895Z,9.50
2018-07-07T05:05:38.777Z,7.90
2018-07-07T05:06:38.761Z,8.40
2018-07-07T05:07:38.745Z,7.90
2018-07-07T05:08:38.728Z,9.00
2018-07-07T05:09:38.713Z,6.80
2018-07-07T05:10:38.696Z,8.70
2018-07-07T05:11:38.685Z,8.10
2018-07-07T05:12:38.668Z,7.00
2018-07-07T05:13:38.650Z,10.20
2018-07-07T05:14:38.639Z,8.10
2018-07-07T05:15:38.756Z,10.00
2018-07-07T05:16:38.604Z,7.10
2018-07-07T05:17:38.588Z,8.90
2018-07-07T05:18:38.577Z,10.10
2018-07-07T05:19:38.558Z,10.90
2018-07-07T05:20:38.538Z,9.40
2018-07-07T05:21:38.520Z,7.30
2018-07-07T05:22:38.509Z,8.20
2018-07-07T05:23:38.491Z,8.10
2018-07-07T05:24:38.473Z,6.50
2018-07-07T05:25:38.457Z,10.00
2018-07-07T05:26:38.443Z,7.20
2018-07-07T05:27:38.425Z,5.30
2018-07-07T05:28:38.412Z,8.70
2018-07-07T05:29:38.396Z,9.80
2018-07-07T05:30:38.380Z,7.20
2018-07-07T05:31:38.372Z,8.70
2018-07-07T05:32:38.349Z,6.50
2018-07-07T05:33:38.343Z,10.70
2018-07-07T05:34:38.315Z,7.30
2018-07-07T05:35:38.300Z,6.60
2018-07-07T05:36:38.286Z,7.70
2018-07-07T05:37:38.269Z,8.30
2018-07-07T05:38:38.258Z,7.20
2018-07-07T05:39:38.239Z,11.90
2018-07-07T05:40:38.223Z,8.00
2018-07-07T05:41:38.205Z,8.10
2018-07-07T05:42:38.197Z,9.70
2018-07-07T05:43:38.174Z,8.10
2018-07-07T05:44:38.169Z,7.70
2018-07-07T05:45:38.145Z,10.40
2018-07-07T05:46:38.128Z,7.60
2018-07-07T05:47:38.111Z,7.90
2018-07-07T05:48:38.097Z,10.00
2018-07-07T05:49:38.080Z,8.60
2018-07-07T05:50:38.065Z,8.80
2018-07-07T05:51:38.052Z,9.80
2018-07-07T05:52:38.036Z,8.80
2018-07-07T05:53:38.017Z,7.90
2018-07-07T05:54:38.010Z,8.40
2018-07-07T05:55:37.987Z,8.50
2018-07-07T05:56:37.973Z,6.60
2018-07-07T05:57:37.957Z,8.40
2018-07-07T05:58:37.941Z,7.70
2018-07-07T05:59:37.926Z,10.70
2018-07-07T06:00:37.909Z,8.70
2018-07-07T06:01:37.896Z,12.10
2018-07-07T06:02:37.880Z,9.00
2018-07-07T06:03:37.864Z,8.00
2018-07-07T06:04:37.851Z,9.00
2018-07-07T06:05:37.839Z,7.90
2018-07-07T06:06:37.819Z,10.10
2018-07-07T06:07:37.802Z,9.40
2018-07-07T06:08:37.787Z,7.70
2018-07-07T06:09:37.771Z,9.20
2018-07-07T06:10:37.755Z,7.50
2018-07-07T06:11:37.743Z,8.70
2018-07-07T06:12:37.721Z,7.70
2018-07-07T06:13:37.707Z,8.00
2018-07-07T06:14:37.693Z,7.40
2018-07-07T06:15:37.678Z,10.30
2018-07-07T06:16:37.661Z,11.00
2018-07-07T06:17:37.647Z,8.70
2018-07-07T06:18:37.631Z,7.80
2018-07-07T06:19:37.629Z,8.40
2018-07-07T06:20:37.599Z,9.20
2018-07-07T06:21:37.586Z,8.60
2018-07-07T06:22:37.573Z,6.80
2018-07-07T06:23:37.551Z,9.00
2018-07-07T06:24:37.538Z,10.30
2018-07-07T06:25:37.524Z,7.40
2018-07-07T06:26:37.529Z,7.90
2018-07-07T06:27:37.491Z,7.90
2018-07-07T06:28:37.474Z,8.30
2018-07-07T06:29:37.473Z,10.40
2018-07-07T06:30:37.445Z,8.20
2018-07-07T06:31:37.433Z,8.20
2018-07-07T06:32:37.412Z,7.10
2018-07-07T06:33:37.398Z,8.80
2018-07-07T06:34:37.382Z,10.70
2018-07-07T06:35:37.369Z,10.50
2018-07-07T06:36:37.355Z,9.80
2018-07-07T06:37:37.338Z,9.00
2018-07-07T06:38:37.323Z,8.60
2018-07-07T06:39:37.306Z,9.20
2018-07-07T06:40:37.293Z,6.90
2018-07-07T06:41:37.275Z,8.70
2018-07-07T06:42:37.262Z,8.70
2018-07-07T06:43:37.259Z,7.10
2018-07-07T06:44:37.234Z,8.90
2018-07-07T06:45:37.216Z,6.90
2018-07-07T06:46:37.201Z,7.60
2018-07-07T06:47:37.191Z,6.40
2018-07-07T06:48:37.171Z,8.80
2018-07-07T06:49:37.154Z,7.70
2018-07-07T06:50:37.143Z,8.60
2018-07-07T06:51:37.129Z,9.30
2018-07-07T06:52:37.123Z,9.80
2018-07-07T06:53:37.102Z,7.20
2018-07-07T06:54:37.083Z,6.60
2018-07-07T06:55:37.065Z,9.40
2018-07-07T06:56:37.052Z,9.00
2018-07-07T06:57:37.035Z,8.80
2018-07-07T06:58:37.021Z,10.20
2018-07-07T06:59:37.033Z,6.40
2018-07-07T07:00:36.991Z,10.80
2018-07-07T07:01:36.979Z,8.30
2018-07-07T07:02:36.961Z,9.00
2018-07-07T07:03:36.950Z,7.20
2018-07-07T07:04:36.937Z,11.90
2018-07-07T07:05:36.920Z,9.00
2018-07-07T07:06:36.957Z,7.20
2018-07-07T07:07:36.897Z,8.00
2018-07-07T07:08:36.876Z,8.40
2018-07-07T07:09:36.860Z,7.70
2018-07-07T07:10:36.845Z,6.80
2018-07-07T07:11:36.831Z,7.30
2018-07-07T07:12:36.817Z,7.50
2018-07-07T07:13:36.801Z,7.40
2018-07-07T07:14:36.789Z,7.40
2018-07-07T07:15:36.773Z,8.30
2018-07-07T07:16:36.758Z,10.70
2018-07-07T07:17:36.743Z,10.50
2018-07-07T07:18:36.731Z,7.50
2018-07-07T07:19:36.714Z,8.30
2018-07-07T07:20:36.702Z,6.60
2018-07-07T07:21:36.700Z,8.80
2018-07-07T07:22:36.671Z,7.70
2018-07-07T07:23:36.661Z,7.70
2018-07-07T07:24:36.645Z,7.00
2018-07-07T07:25:36.630Z,7.00
2018-07-07T07:26:36.619Z,8.10
2018-07-07T07:27:36.603Z,8.30
2018-07-07T07:28:36.590Z,7.80
2018-07-07T07:29:36.581Z,8.20
2018-07-07T07:30:36.563Z,8.80
2018-07-07T07:31:36.552Z,5.10
2018-07-07T07:32:36.628Z,7.00
2018-07-07T07:33:36.518Z,7.10
2018-07-07T07:34:36.502Z,6.90
2018-07-07T07:35:36.490Z,8.80
2018-07-07T07:36:36.476Z,8.40
2018-07-07T07:37:36.474Z,7.10
2018-07-07T07:38:36.451Z,7.30
2018-07-07T07:39:36.435Z,8.80
2018-07-07T07:40:36.421Z,6.90
2018-07-07T07:41:36.408Z,6.50
2018-07-07T07:42:36.400Z,6.00
2018-07-07T07:43:36.381Z,7.10
2018-07-07T07:44:36.369Z,6.20
2018-07-07T07:45:36.363Z,9.50
2018-07-07T07:46:36.340Z,7.80
2018-07-07T07:47:36.326Z,6.80
2018-07-07T07:48:36.314Z,8.90
2018-07-07T07:49:36.297Z,9.10
2018-07-07T07:50:36.282Z,5.90
2018-07-07T07:51:36.267Z,5.90
2018-07-07T07:52:36.257Z,5.60
2018-07-07T07:53:36.248Z,8.00
2018-07-07T07:54:36.235Z,5.80
2018-07-07T07:55:36.218Z,7.70
2018-07-07T07:56:36.204Z,8.00
2018-07-07T07:57:36.191Z,5.80
2018-07-07T07:58:36.182Z,6.50
2018-07-07T07:59:36.169Z,7.60
2018-07-07T08:00:36.152Z,8.10
2018-07-07T08:01:36.140Z,6.80
2018-07-07T08:02:36.130Z,5.90
2018-07-07T08:03:36.114Z,7.00
2018-07-07T08:04:36.105Z,7.00
2018-07-07T08:05:36.092Z,6.50
2018-07-07T08:06:36.076Z,7.80
2018-07-07T08:07:36.468Z,8.70
2018-07-07T08:08:36.052Z,7.50
2018-07-07T08:09:36.038Z,5.90
2018-07-07T08:10:36.027Z,7.20
2018-07-07T08:11:36.014Z,6.80
2018-07-07T08:12:36.002Z,7.70
2018-07-07T08:13:35.987Z,9.20
2018-07-07T08:14:35.975Z,6.00
2018-07-07T08:15:35.965Z,5.90
2018-07-07T08:16:35.957Z,6.80
2018-07-07T08:17:35.940Z,5.80
2018-07-07T08:18:35.938Z,7.40
2018-07-07T08:19:35.918Z,6.20
2018-07-07T08:20:35.910Z,5.70
2018-07-07T08:21:35.900Z,6.10
2018-07-07T08:22:35.948Z,4.20
2018-07-07T08:23:35.880Z,7.00
2018-07-07T08:24:35.872Z,6.90
2018-07-07T08:25:35.865Z,6.50
2018-07-07T08:26:35.858Z,5.30
2018-07-07T08:27:35.848Z,6.30
2018-07-07T08:28:35.842Z,5.20
2018-07-07T08:29:35.835Z,5.00
2018-07-07T08:30:35.828Z,5.50
2018-07-07T08:31:35.825Z,5.30
2018-07-07T08:32:35.814Z,6.20
2018-07-07T08:33:35.808Z,6.40
2018-07-07T08:34:35.844Z,4.20
2018-07-07T08:35:35.801Z,6.50
2018-07-07T08:36:35.793Z,4.70
2018-07-07T08:37:35.788Z,5.00
2018-07-07T08:38:35.987Z,4.70
2018-07-07T08:39:35.776Z,7.20
2018-07-07T08:40:35.776Z,7.50
2018-07-07T08:41:35.767Z,5.40
2018-07-07T08:42:35.765Z,5.00
2018-07-07T08:43:35.762Z,6.70
2018-07-07T08:44:35.753Z,4.70
2018-07-07T08:45:35.756Z,4.90
2018-07-07T08:46:35.747Z,6.10
2018-07-07T08:47:35.744Z,4.80
2018-07-07T08:48:35.746Z,2.60
2018-07-07T08:49:35.737Z,4.30
2018-07-07T08:50:35.731Z,5.10
2018-07-07T08:51:35.729Z,5.40
2018-07-07T08:52:35.723Z,5.70
2018-07-07T08:53:35.724Z,5.80
2018-07-07T08:54:35.714Z,5.00
2018-07-07T08:55:35.712Z,6.70
2018-07-07T08:56:35.708Z,6.30
2018-07-07T08:57:35.707Z,4.60
2018-07-07T08:58:35.697Z,5.00
2018-07-07T08:59:35.695Z,8.20
2018-07-07T09:00:35.692Z,5.80
2018-07-07T09:01:35.682Z,7.40
2018-07-07T09:02:35.681Z,4.30
2018-07-07T09:03:35.675Z,5.90
2018-07-07T09:04:35.669Z,4.90
2018-07-07T09:05:35.664Z,4.80
2018-07-07T09:06:35.666Z,3.80
2018-07-07T09:07:35.658Z,5.00
2018-07-07T09:08:35.652Z,4.70
2018-07-07T09:09:35.646Z,4.20
2018-07-07T09:10:35.642Z,5.60
2018-07-07T09:11:35.636Z,5.00
2018-07-07T09:12:35.634Z,5.70
2018-07-07T09:13:35.624Z,5.40
2018-07-07T09:14:35.624Z,4.80
2018-07-07T09:15:35.618Z,5.50
2018-07-07T09:16:35.613Z,6.80
2018-07-07T09:17:35.606Z,5.20
2018-07-07T09:18:35.603Z,8.10
2018-07-07T09:19:35.597Z,5.60
2018-07-07T09:20:35.597Z,5.80
2018-07-07T09:21:35.584Z,4.40
2018-07-07T09:22:35.580Z,5.50
2018-07-07T09:23:35.576Z,4.00
2018-07-07T09:24:35.669Z,7.90
2018-07-07T09:25:35.565Z,8.80
2018-07-07T09:26:35.562Z,6.30
2018-07-07T09:27:35.559Z,4.90
2018-07-07T09:28:35.552Z,5.60
2018-07-07T09:29:35.558Z,4.10
2018-07-07T09:30:35.552Z,3.00
2018-07-07T09:31:35.540Z,4.30
2018-07-07T09:32:35.534Z,5.60
2018-07-07T09:33:35.535Z,3.10
2018-07-07T09:34:35.524Z,2.90
2018-07-07T09:35:35.525Z,4.20
2018-07-07T09:36:35.517Z,3.90
2018-07-07T09:37:35.511Z,5.10
2018-07-07T09:38:35.508Z,3.90
2018-07-07T09:39:35.502Z,4.00
2018-07-07T09:40:35.498Z,3.60
2018-07-07T09:41:35.492Z,3.90
2018-07-07T09:42:35.490Z,4.80
2018-07-07T09:43:35.485Z,4.00
2018-07-07T09:44:35.486Z,4.60
2018-07-07T09:45:35.473Z,3.30
2018-07-07T09:46:35.470Z,4.20
2018-07-07T09:47:35.470Z,4.60
2018-07-07T09:48:35.467Z,7.30
2018-07-07T09:49:35.457Z,4.10
2018-07-07T09:50:35.453Z,5.30
2018-07-07T09:51:35.448Z,4.90
2018-07-07T09:52:35.451Z,4.30
2018-07-07T09:53:35.438Z,4.30
2018-07-07T09:54:35.437Z,5.10
2018-07-07T09:55:35.435Z,3.80
2018-07-07T09:56:35.426Z,4.60
2018-07-07T09:57:35.427Z,5.30
2018-07-07T09:58:35.418Z,5.00
2018-07-07T09:59:35.416Z,4.20
2018-07-07T10:00:35.421Z,3.80
2018-07-07T10:01:35.406Z,4.60
2018-07-07T10:02:35.403Z,4.30
2018-07-07T10:03:35.402Z,5.20
2018-07-07T10:04:35.395Z,3.90
2018-07-07T10:05:35.393Z,4.10
2018-07-07T10:06:35.390Z,4.50
2018-07-07T10:07:35.425Z,5.20
2018-07-07T10:08:35.381Z,5.40
2018-07-07T10:09:35.379Z,5.30
2018-07-07T10:10:35.377Z,4.70
2018-07-07T10:11:35.376Z,5.00
2018-07-07T10:12:35.370Z,4.60
2018-07-07T10:13:35.460Z,3.50
2018-07-07T10:14:35.365Z,5.90
2018-07-07T10:15:35.363Z,4.50
2018-07-07T10:16:35.365Z,4.00
2018-07-07T10:17:35.361Z,4.40
2018-07-07T10:18:35.353Z,4.80
2018-07-07T10:19:35.354Z,3.10
2018-07-07T10:20:35.376Z,5.20
2018-07-07T10:21:35.348Z,8.00
2018-07-07T10:22:35.348Z,4.00
2018-07-07T10:23:35.348Z,4.70
2018-07-07T10:24:35.345Z,3.70
2018-07-07T10:25:35.343Z,3.70
2018-07-07T10:26:35.342Z,3.10
2018-07-07T10:27:35.339Z,5.50
2018-07-07T10:28:35.345Z,3.80
2018-07-07T10:29:35.346Z,4.80
2018-07-07T10:30:35.340Z,4.50
2018-07-07T10:31:35.373Z,3.00
2018-07-07T10:32:35.342Z,4.70
2018-07-07T10:33:35.328Z,4.10
2018-07-07T10:34:35.334Z,2.80
2018-07-07T10:35:35.325Z,3.30
2018-07-07T10:36:35.326Z,3.50
2018-07-07T10:37:35.379Z,3.80
2018-07-07T10:38:35.322Z,4.10
2018-07-07T10:39:35.322Z,3.60
2018-07-07T10:40:35.323Z,2.20
2018-07-07T10:41:35.326Z,3.60
2018-07-07T10:42:35.320Z,3.50
2018-07-07T10:43:35.328Z,3.00
2018-07-07T10:44:35.323Z,2.70
2018-07-07T10:45:35.385Z,2.60
2018-07-07T10:46:35.315Z,5.20
2018-07-07T10:47:35.317Z,3.00
2018-07-07T10:48:35.317Z,2.30
2018-07-07T10:49:35.317Z,2.30
2018-07-07T10:50:35.317Z,3.60
2018-07-07T10:51:35.319Z,2.70
2018-07-07T10:52:35.317Z,3.80
2018-07-07T10:53:35.316Z,2.80
2018-07-07T10:54:35.320Z,3.80
2018-07-07T10:55:35.374Z,3.30
2018-07-07T10:56:35.318Z,3.10
2018-07-07T10:57:35.318Z,2.40
2018-07-07T10:58:35.317Z,3.00
2018-07-07T10:59:35.318Z,2.90
2018-07-07T11:00:35.327Z,2.40
2018-07-07T11:01:35.323Z,3.00
2018-07-07T11:02:35.331Z,4.00
2018-07-07T11:03:35.321Z,3.20
2018-07-07T11:04:35.321Z,2.60
2018-07-07T11:05:35.321Z,3.70
2018-07-07T11:06:35.329Z,5.30
2018-07-07T11:07:35.324Z,4.70
2018-07-07T11:08:35.330Z,4.60
2018-07-07T11:09:35.327Z,4.20
2018-07-07T11:10:35.328Z,2.20
2018-07-07T11:11:35.331Z,2.10
2018-07-07T11:12:35.332Z,4.50
2018-07-07T11:13:35.332Z,3.40
2018-07-07T11:14:35.332Z,3.50
2018-07-07T11:15:35.334Z,2.00
2018-07-07T11:16:35.341Z,2.40
2018-07-07T11:17:35.344Z,4.30
2018-07-07T11:18:35.336Z,3.10
2018-07-07T11:19:35.336Z,2.50
2018-07-07T11:20:35.336Z,1.90
2018-07-07T11:21:35.345Z,3.50
2018-07-07T11:22:35.346Z,3.60
2018-07-07T11:23:35.336Z,3.00
2018-07-07T11:24:35.346Z,3.70
2018-07-07T11:25:35.339Z,3.80
2018-07-07T11:26:35.347Z,2.20
2018-07-07T11:27:35.334Z,3.00
2018-07-07T11:28:35.344Z,2.60
2018-07-07T11:29:35.336Z,2.20
2018-07-07T11:30:35.336Z,1.90
2018-07-07T11:31:35.338Z,3.10
2018-07-07T11:32:35.337Z,2.80
2018-07-07T11:33:35.342Z,2.10
2018-07-07T11:34:35.337Z,2.70
2018-07-07T11:35:35.340Z,2.80
2018-07-07T11:36:35.444Z,2.80
2018-07-07T11:37:35.332Z,3.30
2018-07-07T11:38:35.337Z,2.20
2018-07-07T11:39:35.337Z,2.20
2018-07-07T11:40:35.337Z,2.00
2018-07-07T11:41:35.345Z,2.90
2018-07-07T11:42:35.336Z,2.50
2018-07-07T11:43:35.336Z,2.70
2018-07-07T11:44:35.340Z,3.20
2018-07-07T11:45:35.339Z,2.10
2018-07-07T11:46:35.339Z,4.50
2018-07-07T11:47:35.340Z,2.10
2018-07-07T11:48:35.340Z,3.20
2018-07-07T11:49:35.341Z,2.00
2018-07-07T11:50:35.441Z,3.20
2018-07-07T11:51:35.344Z,2.70
2018-07-07T11:52:35.344Z,1.90
2018-07-07T11:53:35.342Z,3.80
2018-07-07T11:54:35.345Z,3.40
2018-07-07T11:55:35.353Z,4.90
2018-07-07T11:56:35.345Z,2.20
2018-07-07T11:57:35.345Z,3.60
2018-07-07T11:58:35.346Z,4.00
2018-07-07T11:59:35.351Z,3.60
2018-07-07T12:00:35.358Z,3.60
2018-07-07T12:01:35.349Z,2.90
2018-07-07T12:02:35.357Z,3.30
2018-07-07T12:03:35.352Z,3.00
2018-07-07T12:04:35.438Z,1.70
2018-07-07T12:05:35.352Z,3.20
2018-07-07T12:06:35.351Z,4.10
2018-07-07T12:07:35.356Z,2.90
2018-07-07T12:08:35.352Z,1.60
2018-07-07T12:09:35.352Z,3.10
2018-07-07T12:10:35.355Z,1.20
2018-07-07T12:11:35.380Z,2.80
2018-07-07T12:12:35.357Z,2.20
2018-07-07T12:13:35.354Z,3.90
2018-07-07T12:14:35.352Z,3.60
2018-07-07T12:15:35.356Z,4.10
2018-07-07T12:16:35.356Z,1.80
2018-07-07T12:17:35.352Z,2.40
2018-07-07T12:18:35.353Z,2.50
2018-07-07T12:19:35.352Z,1.90
2018-07-07T12:20:35.358Z,3.50
2018-07-07T12:21:35.368Z,1.80
2018-07-07T12:22:35.353Z,3.00
2018-07-07T12:23:35.354Z,2.80
2018-07-07T12:24:35.359Z,2.90
2018-07-07T12:25:35.353Z,2.40
2018-07-07T12:26:35.352Z,2.50
2018-07-07T12:27:35.353Z,2.70
2018-07-07T12:28:35.353Z,4.30
2018-07-07T12:29:35.352Z,2.50
2018-07-07T12:30:35.368Z,3.20
2018-07-07T12:31:35.349Z,2.60
2018-07-07T12:32:35.353Z,1.70
2018-07-07T12:33:35.356Z,3.70
2018-07-07T12:34:35.365Z,2.70
2018-07-07T12:35:35.356Z,3.80
2018-07-07T12:36:35.379Z,1.90
2018-07-07T12:37:35.351Z,1.90
2018-07-07T12:38:35.343Z,3.40
2018-07-07T12:39:35.346Z,2.60
2018-07-07T12:40:35.480Z,2.80
2018-07-07T12:41:35.343Z,1.60
2018-07-07T12:42:35.337Z,2.80
2018-07-07T12:43:35.346Z,4.80
2018-07-07T12:44:35.340Z,2.80
2018-07-07T12:45:35.334Z,2.00
2018-07-07T12:46:35.331Z,3.90
2018-07-07T12:47:35.331Z,3.50
2018-07-07T12:48:35.328Z,2.40
2018-07-07T12:49:35.328Z,2.90
2018-07-07T12:50:35.326Z,3.50
2018-07-07T12:51:35.321Z,1.70
2018-07-07T12:52:35.323Z,2.50
2018-07-07T12:53:35.328Z,3.40
2018-07-07T12:54:35.315Z,3.10
2018-07-07T12:55:35.316Z,1.80
2018-07-07T12:56:35.312Z,2.00
2018-07-07T12:57:35.319Z,3.00
2018-07-07T12:58:35.315Z,2.50
2018-07-07T12:59:35.305Z,2.50
2018-07-07T13:00:35.302Z,2.60
2018-07-07T13:01:35.298Z,3.40
2018-07-07T13:02:35.295Z,3.00
2018-07-07T13:03:35.296Z,5.70
2018-07-07T13:04:35.294Z,4.10
2018-07-07T13:05:35.289Z,1.80
2018-07-07T13:06:35.286Z,2.20
2018-07-07T13:07:35.283Z,1.60
2018-07-07T13:08:35.281Z,4.00
2018-07-07T13:09:35.283Z,2.10
2018-07-07T13:10:35.290Z,2.80
2018-07-07T13:11:35.274Z,2.60
2018-07-07T13:12:35.270Z,3.30
2018-07-07T13:13:35.266Z,2.20
2018-07-07T13:14:35.261Z,3.30
2018-07-07T13:15:35.261Z,4.70
2018-07-07T13:16:35.259Z,3.90
2018-07-07T13:17:35.257Z,2.90